Time;durP1;ratioP1;P1;durP2;ratioP2;P2;SDS_P1;SDS_P2;PMS_P1;PMS_P2;Temp;Humidity;BMP_temperature;BMP_pressure;BME280_temperature;BME280_humidity;BME280_pressure;Samples;Min_cycle;Max_cycle;Signal;HPM_P1;HPM_P2
2023/03/17 00:00:37;;;;;;;7.35;4.82;;;;;;;3.92;41.97;95074.22;5036966;28;20042;-73
2023/03/17 00:03:04;;;;;;;8.50;4.30;;;;;;;3.78;42.68;95075.56;5020216;28;20078;-73
2023/03/17 00:05:32;;;;;;;7.72;5.10;;;;;;;4.30;43.03;95074.09;5020465;28;20135;-73
2023/03/17 00:08:00;;;;;;;10.23;5.22;;;;;;;4.02;42.20;95071.50;5037007;28;20095;-73
2023/03/17 00:10:26;;;;;;;7.93;4.97;;;;;;;4.11;42.05;95077.69;5019308;28;20021;-73
2023/03/17 00:12:53;;;;;;;10.02;5.88;;;;;;;4.06;43.19;95077.31;5036115;28;20531;-73
2023/03/17 00:15:20;;;;;;;9.80;5.85;;;;;;;4.28;42.91;95076.03;5018840;28;20506;-73
2023/03/17 00:17:46;;;;;;;7.82;5.03;;;;;;;4.09;42.08;95073.56;5019859;28;20032;-73
2023/03/17 00:20:27;;;;;;;6.93;3.78;;;;;;;4.06;41.83;95074.69;5018862;28;20182;-73
2023/03/17 00:23:01;;;;;;;7.95;4.15;;;;;;;4.03;42.79;95069.72;5037434;28;20580;-73
2023/03/17 00:25:28;;;;;;;6.88;4.55;;;;;;;3.97;43.42;95078.19;5026961;28;20031;-73
2023/03/17 00:27:54;;;;;;;8.05;4.95;;;;;;;3.87;43.34;95071.22;5041794;28;20143;-73
2023/03/17 00:30:20;;;;;;;8.95;5.10;;;;;;;3.96;43.30;95066.84;5039739;28;20036;-73
2023/03/17 00:32:46;;;;;;;8.23;5.03;;;;;;;4.08;42.47;95064.81;5025212;28;20037;-73
2023/03/17 00:35:26;;;;;;;8.35;5.30;;;;;;;4.13;43.89;95056.47;5039556;28;20033;-73
2023/03/17 00:37:52;;;;;;;8.90;5.15;;;;;;;4.15;42.65;95059.78;5023037;28;20588;-73
2023/03/17 00:40:19;;;;;;;7.63;4.22;;;;;;;4.15;42.06;95068.50;5023215;28;20320;-73
2023/03/17 00:42:47;;;;;;;8.18;5.45;;;;;;;4.24;43.07;95063.28;5038473;28;20051;-73
2023/03/17 00:45:13;;;;;;;9.32;5.13;;;;;;;4.17;42.45;95074.47;5040828;28;20045;-73
2023/03/17 00:47:39;;;;;;;8.70;5.40;;;;;;;4.10;43.78;95070.78;5038509;28;20122;-73
2023/03/17 00:50:05;;;;;;;7.55;5.05;;;;;;;4.53;41.28;95076.22;5039572;28;20319;-73
2023/03/17 00:52:31;;;;;;;8.63;4.80;;;;;;;3.98;43.49;95062.25;5022415;28;20468;-73
2023/03/17 00:54:58;;;;;;;7.50;4.70;;;;;;;4.24;40.81;95071.19;5040271;28;20174;-73
2023/03/17 00:57:23;;;;;;;9.73;4.95;;;;;;;4.11;42.09;95061.06;5039790;28;20044;-73
2023/03/17 00:59:50;;;;;;;5.65;4.18;;;;;;;4.33;41.92;95057.13;5038875;28;20097;-73
2023/03/17 01:02:15;;;;;;;7.85;5.05;;;;;;;4.19;42.12;95061.94;5039857;28;20044;-73
2023/03/17 01:04:43;;;;;;;9.15;5.25;;;;;;;4.04;42.78;95047.66;5040052;28;20430;-73
2023/03/17 01:07:10;;;;;;;9.18;5.05;;;;;;;3.93;42.88;95043.44;5037677;28;20225;-73
2023/03/17 01:09:37;;;;;;;6.63;4.53;;;;;;;3.83;43.37;95043.50;5038549;28;20157;-73
2023/03/17 01:12:03;;;;;;;8.23;4.85;;;;;;;3.75;43.92;95039.00;5038514;28;20041;-73
2023/03/17 01:14:28;;;;;;;9.25;4.70;;;;;;;3.79;42.41;95035.09;5039596;28;20474;-73
2023/03/17 01:16:54;;;;;;;8.35;4.50;;;;;;;3.67;43.68;95039.75;5036382;28;20029;-73
2023/03/17 01:19:19;;;;;;;6.15;3.97;;;;;;;3.98;42.26;95048.28;5022077;28;20378;-73
2023/03/17 01:21:45;;;;;;;7.00;4.80;;;;;;;3.82;43.15;95044.50;5037792;28;20055;-73
2023/03/17 01:24:10;;;;;;;6.45;4.10;;;;;;;3.94;42.81;95047.72;5038317;28;20044;-73
2023/03/17 01:26:37;;;;;;;7.97;4.30;;;;;;;3.81;42.50;95054.19;5038450;28;20063;-73
2023/03/17 01:29:03;;;;;;;8.48;4.55;;;;;;;4.09;43.38;95055.94;5038736;28;20043;-73
2023/03/17 01:31:29;;;;;;;8.38;4.68;;;;;;;3.76;42.41;95052.97;5021595;28;20440;-73
2023/03/17 01:33:54;;;;;;;5.38;3.75;;;;;;;3.91;41.67;95046.22;5039015;28;20735;-73
2023/03/17 01:36:21;;;;;;;6.53;4.20;;;;;;;4.00;43.32;95044.50;5038657;28;20723;-73
2023/03/17 01:38:48;;;;;;;6.53;4.07;;;;;;;4.06;42.23;95038.63;5038247;28;20477;-73
2023/03/17 01:41:13;;;;;;;8.05;4.38;;;;;;;3.96;43.90;95032.63;5020250;28;20135;-73
2023/03/17 01:43:39;;;;;;;6.40;4.25;;;;;;;3.81;42.56;95024.38;5023989;28;20067;-73
2023/03/17 01:46:26;;;;;;;7.20;4.07;;;;;;;3.53;44.42;95027.91;5039090;28;20055;-73
2023/03/17 01:49:10;;;;;;;7.15;4.45;;;;;;;3.67;44.67;95020.47;5042610;28;20720;-73
2023/03/17 01:51:37;;;;;;;7.20;4.68;;;;;;;3.91;43.70;95022.53;5039166;28;20041;-73
2023/03/17 01:54:05;;;;;;;6.65;4.28;;;;;;;3.73;42.75;95014.63;5038348;28;20106;-73
2023/03/17 01:56:31;;;;;;;8.60;4.18;;;;;;;3.57;43.42;95020.53;5037470;28;20514;-73
2023/03/17 01:58:56;;;;;;;7.15;4.07;;;;;;;3.62;43.44;95022.72;5037728;28;20063;-73
2023/03/17 02:01:24;;;;;;;6.47;4.30;;;;;;;3.59;44.56;95020.41;5023010;28;20043;-75
2023/03/17 02:03:49;;;;;;;6.25;3.97;;;;;;;3.83;44.64;95019.81;5019393;28;20464;-75
2023/03/17 02:06:15;;;;;;;6.93;4.25;;;;;;;3.85;43.76;95025.78;5037433;28;20028;-75
2023/03/17 02:08:41;;;;;;;6.18;4.05;;;;;;;3.64;43.29;95020.78;5036736;28;20214;-75
2023/03/17 02:11:07;;;;;;;5.57;3.92;;;;;;;3.53;44.36;95021.81;5037573;28;20493;-75
2023/03/17 02:13:33;;;;;;;5.93;4.15;;;;;;;3.47;44.25;95020.59;5036466;28;20552;-75
2023/03/17 02:15:59;;;;;;;7.18;4.07;;;;;;;3.50;44.98;95015.03;5037085;28;20036;-75
2023/03/17 02:18:24;;;;;;;6.00;3.90;;;;;;;3.52;43.15;95013.09;5039807;28;20098;-75
2023/03/17 02:20:52;;;;;;;5.47;3.50;;;;;;;3.37;43.51;95007.47;5039234;28;20046;-75
2023/03/17 02:23:23;;;;;;;7.43;4.30;;;;;;;3.42;45.31;95007.88;5038208;28;20620;-75
2023/03/17 02:25:50;;;;;;;6.75;4.22;;;;;;;3.44;45.93;94999.84;5038909;28;20540;-75
2023/03/17 02:28:18;;;;;;;7.05;3.97;;;;;;;3.43;44.27;94982.38;5020571;28;20106;-75
2023/03/17 02:30:43;;;;;;;5.95;4.03;;;;;;;3.64;44.03;94983.94;5021599;28;20047;-75
2023/03/17 02:33:10;;;;;;;6.10;4.00;;;;;;;3.41;45.63;94974.63;5038280;28;20036;-75
2023/03/17 02:35:36;;;;;;;6.40;4.00;;;;;;;3.35;43.22;94975.22;5039336;28;20078;-75
2023/03/17 02:38:01;;;;;;;6.13;4.10;;;;;;;3.63;44.43;94980.47;5037161;28;20065;-75
2023/03/17 02:40:27;;;;;;;5.32;3.80;;;;;;;3.37;44.00;94970.63;5036223;28;20067;-75
2023/03/17 02:42:55;;;;;;;4.95;3.58;;;;;;;3.70;44.95;94979.88;5037525;28;20059;-75
2023/03/17 02:45:20;;;;;;;6.93;3.80;;;;;;;3.68;44.66;94980.84;5036749;28;20466;-75
2023/03/17 02:47:46;;;;;;;7.63;4.10;;;;;;;3.77;44.02;94981.75;5036096;28;20072;-75
2023/03/17 02:50:16;;;;;;;5.88;3.65;;;;;;;3.72;44.64;94977.91;5036724;28;20032;-75
2023/03/17 02:52:43;;;;;;;6.45;3.90;;;;;;;3.54;44.35;94970.84;5020383;28;20135;-75
2023/03/17 02:55:09;;;;;;;6.25;3.70;;;;;;;3.83;43.49;94971.56;5037466;28;20434;-75
2023/03/17 02:57:34;;;;;;;5.07;3.80;;;;;;;3.47;42.77;94967.97;5038524;28;20378;-75
2023/03/17 03:00:00;;;;;;;6.47;3.92;;;;;;;3.82;42.41;94968.13;5037544;28;20060;-75
2023/03/17 03:02:25;;;;;;;6.75;3.55;;;;;;;3.42;42.75;94962.28;5035824;28;20040;-75
2023/03/17 03:04:52;;;;;;;6.38;3.80;;;;;;;3.53;44.89;94956.84;5020508;28;20455;-75
2023/03/17 03:07:17;;;;;;;6.22;4.13;;;;;;;3.40;43.29;94961.59;5018315;28;20116;-75
2023/03/17 03:09:43;;;;;;;4.82;3.75;;;;;;;3.38;43.66;94966.22;5022687;28;20039;-75
2023/03/17 03:12:08;;;;;;;5.40;3.83;;;;;;;3.52;43.57;94960.47;5036061;28;20071;-75
2023/03/17 03:14:34;;;;;;;7.38;3.40;;;;;;;3.56;44.40;94960.97;5038229;28;20028;-75
2023/03/17 03:17:00;;;;;;;5.18;3.72;;;;;;;3.38;43.78;94946.00;5039205;28;20366;-75
2023/03/17 03:19:25;;;;;;;5.32;3.58;;;;;;;3.06;45.79;94951.72;5039706;28;20465;-75
2023/03/17 03:21:50;;;;;;;7.25;3.58;;;;;;;3.16;44.36;94958.59;5038499;28;20058;-75
2023/03/17 03:24:16;;;;;;;6.18;3.80;;;;;;;3.15;45.27;94956.94;5039680;28;20106;-75
2023/03/17 03:26:41;;;;;;;5.53;3.67;;;;;;;2.86;46.38;94951.84;5038305;28;20064;-75
2023/03/17 03:29:07;;;;;;;5.53;3.42;;;;;;;3.01;44.52;94954.78;5037932;28;20049;-75
2023/03/17 03:31:33;;;;;;;7.03;3.63;;;;;;;2.95;45.19;94958.84;5037971;28;20653;-75
2023/03/17 03:33:58;;;;;;;6.45;3.67;;;;;;;2.80;45.57;94947.97;5020504;28;20035;-75
2023/03/17 03:36:25;;;;;;;4.78;3.20;;;;;;;2.96;46.02;94952.59;5037316;28;20076;-75
2023/03/17 03:38:51;;;;;;;6.43;3.50;;;;;;;3.06;43.56;94955.16;5037853;28;20360;-75
2023/03/17 03:41:16;;;;;;;6.25;3.53;;;;;;;3.33;45.36;94966.63;5038083;28;20284;-75
2023/03/17 03:43:41;;;;;;;5.95;3.60;;;;;;;3.10;45.08;94963.59;5035778;28;20426;-75
2023/03/17 03:46:07;;;;;;;7.78;3.70;;;;;;;3.10;43.96;94955.72;5037584;28;20455;-75
2023/03/17 03:48:32;;;;;;;5.63;3.20;;;;;;;3.33;44.80;94948.22;5035768;28;20073;-75
2023/03/17 03:50:59;;;;;;;6.68;3.65;;;;;;;3.28;44.56;94937.31;5037365;28;20063;-75
2023/03/17 03:53:25;;;;;;;6.47;4.00;;;;;;;3.16;44.21;94942.78;5036296;28;20047;-75
2023/03/17 03:55:50;;;;;;;5.40;3.65;;;;;;;3.36;42.73;94945.28;5037129;28;20115;-75
2023/03/17 03:58:16;;;;;;;3.92;3.17;;;;;;;3.35;44.12;94943.66;5036601;28;20051;-75
2023/03/17 04:00:41;;;;;;;4.95;3.47;;;;;;;3.40;43.78;94941.38;5035471;28;20309;-75
2023/03/17 04:03:07;;;;;;;5.55;3.75;;;;;;;3.31;44.46;94937.03;5036695;28;20080;-75
2023/03/17 04:05:32;;;;;;;5.03;3.40;;;;;;;3.30;43.04;94944.09;5036356;28;20055;-75
2023/03/17 04:07:57;;;;;;;6.20;3.50;;;;;;;2.75;45.22;94955.47;5033688;28;20072;-75
2023/03/17 04:10:23;;;;;;;5.40;3.58;;;;;;;3.22;45.11;94958.94;5015983;28;20189;-75
2023/03/17 04:12:48;;;;;;;5.35;3.70;;;;;;;3.20;44.75;94955.66;5036778;28;20107;-75
2023/03/17 04:15:15;;;;;;;5.57;3.78;;;;;;;2.94;46.05;94957.19;5035144;28;20072;-75
2023/03/17 04:17:40;;;;;;;4.50;3.38;;;;;;;2.83;46.84;94957.38;5035887;28;20623;-75
2023/03/17 04:20:06;;;;;;;4.45;3.20;;;;;;;2.99;46.52;94954.13;5036205;28;20083;-75
2023/03/17 04:22:33;;;;;;;5.07;3.38;;;;;;;2.88;45.51;94953.34;5037240;28;20060;-75
2023/03/17 04:24:58;;;;;;;5.65;3.45;;;;;;;2.93;46.25;94952.06;5037287;28;20032;-75
2023/03/17 04:27:24;;;;;;;5.25;3.67;;;;;;;2.67;44.59;94955.34;5037146;28;20556;-75
2023/03/17 04:29:49;;;;;;;5.07;3.45;;;;;;;2.88;44.67;94947.25;5035189;28;20053;-75
2023/03/17 04:32:15;;;;;;;5.22;3.30;;;;;;;2.90;47.01;94935.59;5036923;28;20527;-75
2023/03/17 04:34:41;;;;;;;4.82;3.13;;;;;;;2.57;47.05;94939.63;5034885;28;20368;-75
2023/03/17 04:37:07;;;;;;;4.53;3.00;;;;;;;2.65;46.48;94935.31;5001493;28;20544;-75
2023/03/17 04:39:34;;;;;;;6.07;3.60;;;;;;;2.60;45.75;94937.56;5018182;28;20075;-75
2023/03/17 04:42:00;;;;;;;5.00;3.40;;;;;;;2.60;46.38;94942.81;5035555;28;20733;-75
2023/03/17 04:44:25;;;;;;;4.57;3.13;;;;;;;2.47;45.89;94953.66;5034890;28;20309;-75
2023/03/17 04:46:51;;;;;;;4.53;3.20;;;;;;;2.56;46.21;94961.63;5034815;28;20584;-75
2023/03/17 04:49:17;;;;;;;5.95;3.40;;;;;;;2.75;44.46;94964.19;5034883;28;20676;-75
2023/03/17 04:51:43;;;;;;;4.43;3.10;;;;;;;2.57;45.61;94964.13;5036501;28;20076;-75
2023/03/17 04:54:08;;;;;;;5.75;3.60;;;;;;;2.55;43.82;94955.53;5003380;28;20038;-75
2023/03/17 04:56:35;;;;;;;5.43;3.53;;;;;;;2.69;45.75;94953.44;5021337;28;20088;-75
2023/03/17 04:59:00;;;;;;;5.18;3.22;;;;;;;2.96;43.66;94943.91;5038809;28;20082;-75
2023/03/17 05:01:25;;;;;;;6.32;3.65;;;;;;;2.57;43.89;94939.63;5032750;28;20047;-75
2023/03/17 05:03:51;;;;;;;4.97;3.38;;;;;;;2.72;43.03;94948.69;5040503;28;20061;-75
2023/03/17 05:06:16;;;;;;;8.35;3.72;;;;;;;2.65;43.77;94953.72;5038396;28;20046;-75
2023/03/17 05:08:45;;;;;;;4.32;3.22;;;;;;;2.84;44.96;94951.13;5035281;28;20559;-75
2023/03/17 05:11:12;;;;;;;5.25;3.10;;;;;;;2.68;45.65;94954.41;5041083;28;20820;-75
2023/03/17 05:13:39;;;;;;;4.15;3.30;;;;;;;2.71;46.95;94956.72;5039041;28;20238;-75
2023/03/17 05:16:06;;;;;;;5.32;3.45;;;;;;;2.57;46.13;94950.97;5037056;28;20064;-75
2023/03/17 05:18:31;;;;;;;4.25;3.20;;;;;;;2.38;45.55;94962.38;5040828;28;20565;-75
2023/03/17 05:20:57;;;;;;;5.90;3.45;;;;;;;2.62;46.90;94961.88;5046120;28;20050;-75
2023/03/17 05:23:22;;;;;;;4.20;3.20;;;;;;;2.67;45.00;94963.25;5039685;28;20322;-75
2023/03/17 05:25:48;;;;;;;4.53;3.08;;;;;;;2.95;44.15;94958.84;5038877;28;20063;-75
2023/03/17 05:28:13;;;;;;;5.75;3.72;;;;;;;2.89;45.50;94955.00;5037844;28;20397;-75
2023/03/17 05:30:39;;;;;;;4.45;3.20;;;;;;;2.52;45.48;94955.84;5038496;28;20111;-75
2023/03/17 05:33:05;;;;;;;5.60;3.10;;;;;;;2.76;44.89;94955.31;5041639;28;20066;-75
2023/03/17 05:35:30;;;;;;;5.35;3.40;;;;;;;2.67;45.86;94955.34;5042602;28;20109;-75
2023/03/17 05:37:55;;;;;;;4.97;3.35;;;;;;;2.84;46.03;94951.13;5040136;28;20051;-75
2023/03/17 05:40:22;;;;;;;4.35;3.00;;;;;;;2.89;47.92;94944.47;5038282;28;20069;-75
2023/03/17 05:42:48;;;;;;;7.45;3.22;;;;;;;2.88;46.61;94942.81;5040167;28;20070;-75
2023/03/17 05:45:13;;;;;;;5.32;3.20;;;;;;;2.70;46.67;94944.56;5019286;28;20406;-75
2023/03/17 05:47:39;;;;;;;3.67;3.05;;;;;;;2.57;45.47;94939.63;5041970;28;20082;-75
2023/03/17 05:50:05;;;;;;;6.20;2.88;;;;;;;2.68;45.82;94942.06;5041357;28;20059;-75
2023/03/17 05:52:31;;;;;;;4.97;3.28;;;;;;;2.86;45.00;94946.56;5043405;28;20535;-75
2023/03/17 05:54:58;;;;;;;5.40;3.47;;;;;;;3.06;44.67;94942.00;5041661;28;20072;-75
2023/03/17 05:57:24;;;;;;;5.38;3.67;;;;;;;2.94;44.32;94951.09;5041429;28;20252;-76
2023/03/17 05:59:52;;;;;;;4.30;3.22;;;;;;;2.87;45.13;94946.44;5039385;28;20061;-75
2023/03/17 06:02:17;;;;;;;5.87;3.10;;;;;;;2.95;44.46;94937.78;5040465;28;20051;-75
2023/03/17 06:04:43;;;;;;;4.35;2.90;;;;;;;3.15;45.05;94935.88;5040873;28;20124;-76
2023/03/17 06:07:09;;;;;;;6.45;3.20;;;;;;;3.01;44.38;94933.75;5039886;28;20071;-76
2023/03/17 06:09:34;;;;;;;6.00;3.55;;;;;;;2.86;44.90;94936.88;5036040;28;20065;-76
2023/03/17 06:12:00;;;;;;;7.72;3.05;;;;;;;3.29;44.62;94933.72;5036212;28;20071;-75
2023/03/17 06:14:26;;;;;;;5.05;3.35;;;;;;;3.17;44.43;94933.91;5037902;28;20061;-76
2023/03/17 06:16:51;;;;;;;5.15;3.38;;;;;;;3.27;43.70;94933.06;5039514;28;20056;-75
2023/03/17 06:19:16;;;;;;;8.77;3.38;;;;;;;3.32;44.36;94936.06;5023232;28;20461;-75
2023/03/17 06:21:42;;;;;;;5.82;3.45;;;;;;;3.39;43.49;94934.47;5042379;28;20053;-75
2023/03/17 06:24:08;;;;;;;6.97;3.50;;;;;;;3.66;44.02;94931.94;5038485;28;20394;-76
2023/03/17 06:26:34;;;;;;;5.03;3.55;;;;;;;3.66;43.20;94943.31;5037902;28;20079;-75
2023/03/17 06:29:00;;;;;;;4.55;3.50;;;;;;;3.76;42.54;94939.75;5038268;28;20053;-76
2023/03/17 06:31:26;;;;;;;6.82;3.72;;;;;;;3.70;43.42;94951.72;5038048;28;20092;-75
2023/03/17 06:33:53;;;;;;;4.75;3.28;;;;;;;4.09;43.72;94955.00;5039431;28;20040;-75
2023/03/17 06:36:18;;;;;;;4.95;3.50;;;;;;;4.01;43.31;94947.88;5036940;28;20068;-76
2023/03/17 06:38:44;;;;;;;4.57;3.30;;;;;;;4.11;42.07;94945.97;5039112;28;20086;-76
2023/03/17 06:41:10;;;;;;;7.22;3.35;;;;;;;4.47;42.03;94949.47;5039516;28;20427;-76
2023/03/17 06:43:36;;;;;;;5.47;3.25;;;;;;;4.81;41.30;94948.66;5038022;28;20045;-75
2023/03/17 06:46:01;;;;;;;5.50;3.30;;;;;;;5.06;40.15;94954.91;5040569;28;20051;-76
2023/03/17 06:48:27;;;;;;;5.70;3.35;;;;;;;5.13;39.91;94960.34;5037320;28;20053;-75
2023/03/17 06:50:53;;;;;;;4.53;3.22;;;;;;;5.17;40.84;94959.03;5040119;28;20579;-75
2023/03/17 06:53:18;;;;;;;5.88;3.63;;;;;;;5.26;40.40;94966.97;5021273;28;20037;-76
2023/03/17 06:55:44;;;;;;;4.72;3.10;;;;;;;5.46;38.75;94955.19;5021976;28;20410;-76
2023/03/17 06:58:12;;;;;;;3.97;3.00;;;;;;;5.65;39.20;94958.50;5039055;28;20028;-76
2023/03/17 07:00:38;;;;;;;5.80;3.33;;;;;;;5.60;39.39;94969.56;5033678;28;20033;-75
2023/03/17 07:03:06;;;;;;;4.32;3.13;;;;;;;5.81;39.45;94964.78;5021293;28;20039;-76
2023/03/17 07:05:32;;;;;;;5.97;3.47;;;;;;;5.87;38.73;94958.84;5021280;28;20041;-75
2023/03/17 07:07:57;;;;;;;5.45;3.63;;;;;;;5.80;39.53;94955.19;5034599;28;20041;-75
2023/03/17 07:10:23;;;;;;;5.28;3.38;;;;;;;6.01;37.46;94957.34;5019749;28;20455;-76
2023/03/17 07:12:49;;;;;;;4.57;3.25;;;;;;;6.06;38.37;94954.22;5036653;28;20178;-76
2023/03/17 07:15:16;;;;;;;4.47;3.05;;;;;;;6.07;38.53;94956.72;5038486;28;20064;-76
2023/03/17 07:17:41;;;;;;;5.25;3.00;;;;;;;6.24;38.37;94957.53;5035890;28;20041;-76
2023/03/17 07:20:10;;;;;;;4.25;2.78;;;;;;;6.50;38.12;94959.16;5037821;28;20067;-76
2023/03/17 07:22:35;;;;;;;3.92;2.88;;;;;;;6.58;38.15;94957.47;5039545;28;20048;-76
2023/03/17 07:25:01;;;;;;;4.97;2.92;;;;;;;6.66;37.14;94957.47;5038369;28;20040;-76
2023/03/17 07:27:26;;;;;;;4.30;3.15;;;;;;;6.52;37.72;94955.53;5038252;28;20473;-76
2023/03/17 07:29:52;;;;;;;4.30;2.75;;;;;;;6.94;36.86;94949.09;5036629;28;20037;-76
2023/03/17 07:32:18;;;;;;;5.45;3.25;;;;;;;7.14;36.36;94951.31;5035392;28;20483;-76
2023/03/17 07:34:43;;;;;;;5.20;3.30;;;;;;;7.36;35.27;94959.50;5034944;28;20060;-76
2023/03/17 07:37:09;;;;;;;4.47;3.20;;;;;;;7.28;36.78;94957.75;5037930;28;20513;-76
2023/03/17 07:39:34;;;;;;;4.53;3.28;;;;;;;7.22;35.22;94956.63;5018651;28;20067;-76
2023/03/17 07:42:00;;;;;;;5.28;3.58;;;;;;;7.56;35.91;94951.94;5035863;28;20086;-76
2023/03/17 07:44:26;;;;;;;4.93;3.60;;;;;;;8.00;33.33;94953.16;5035403;28;20059;-76
2023/03/17 07:46:51;;;;;;;7.25;3.80;;;;;;;8.27;31.98;94948.28;5036141;28;20102;-76
2023/03/17 07:49:17;;;;;;;4.82;3.40;;;;;;;8.61;32.24;94942.66;5036105;28;20033;-76
2023/03/17 07:51:42;;;;;;;5.40;3.75;;;;;;;8.21;32.45;94949.00;5035778;28;20532;-76
2023/03/17 07:54:09;;;;;;;6.53;4.35;;;;;;;8.34;33.02;94956.34;5037499;28;20025;-76
2023/03/17 07:56:35;;;;;;;6.20;3.55;;;;;;;8.71;31.69;94948.53;5036719;28;20036;-76
2023/03/17 07:59:00;;;;;;;8.05;5.05;;;;;;;8.43;32.29;94959.72;5019613;28;20037;-76
2023/03/17 08:01:26;;;;;;;7.80;4.63;;;;;;;7.88;33.61;94952.75;5039378;28;20033;-76
2023/03/17 08:03:51;;;;;;;6.63;4.72;;;;;;;8.30;33.43;94949.78;5037833;28;20041;-76
2023/03/17 08:06:20;;;;;;;7.32;4.45;;;;;;;8.41;32.43;94964.41;5037377;28;20041;-76
2023/03/17 08:08:46;;;;;;;7.70;4.78;;;;;;;8.67;32.10;94955.22;5036084;28;20670;-76
2023/03/17 08:11:11;;;;;;;9.23;3.17;;;;;;;8.86;31.03;94950.34;5035675;28;20400;-76
2023/03/17 08:13:36;;;;;;;5.53;3.78;;;;;;;8.39;31.74;94940.72;5038582;28;20468;-76
2023/03/17 08:16:02;;;;;;;4.82;3.25;;;;;;;8.08;32.87;94954.06;5037064;28;20567;-76
2023/03/17 08:18:27;;;;;;;7.40;4.65;;;;;;;8.89;31.95;94942.00;5039111;28;20032;-76
2023/03/17 08:20:53;;;;;;;7.22;4.22;;;;;;;8.88;31.40;94941.19;5039696;28;20064;-76
2023/03/17 08:23:19;;;;;;;6.82;3.95;;;;;;;9.40;30.70;94943.91;5041261;28;20036;-77
2023/03/17 08:25:45;;;;;;;5.57;3.30;;;;;;;9.02;30.50;94946.72;5020852;28;20561;-76
2023/03/17 08:28:10;;;;;;;7.00;5.13;;;;;;;9.04;31.52;94950.00;5040309;28;20098;-77
2023/03/17 08:30:37;;;;;;;6.18;4.45;;;;;;;9.23;31.26;94948.63;5040489;28;20084;-76
2023/03/17 08:33:03;;;;;;;5.53;3.53;;;;;;;9.62;30.74;94943.13;5040861;28;20040;-77
2023/03/17 08:35:29;;;;;;;4.47;3.28;;;;;;;9.77;29.96;94948.38;5022807;28;20544;-77
2023/03/17 08:37:55;;;;;;;5.13;3.40;;;;;;;9.91;30.28;94950.16;5036652;28;20118;-77
2023/03/17 08:40:20;;;;;;;6.35;3.47;;;;;;;10.02;30.96;94945.31;5036876;28;20426;-77
2023/03/17 08:42:46;;;;;;;4.72;3.30;;;;;;;9.58;30.64;94954.13;5033591;28;20090;-72
2023/03/17 08:45:12;;;;;;;4.38;3.20;;;;;;;9.67;31.47;94954.00;5036584;28;20496;-72
2023/03/17 08:47:39;;;;;;;5.45;3.00;;;;;;;10.10;30.09;94956.69;5036285;28;20183;-72
2023/03/17 08:50:07;;;;;;;5.10;3.70;;;;;;;10.23;30.25;94944.50;5036315;28;20058;-72
2023/03/17 08:52:32;;;;;;;6.18;3.80;;;;;;;10.02;30.42;94953.28;5032925;28;20036;-72
2023/03/17 08:54:58;;;;;;;5.35;3.38;;;;;;;8.08;33.26;94943.47;5041799;28;20121;-72
2023/03/17 08:57:23;;;;;;;3.75;3.20;;;;;;;7.36;33.68;94940.97;5040805;28;20055;-72
2023/03/17 08:59:49;;;;;;;8.48;6.35;;;;;;;8.90;33.20;94938.34;5041423;28;20032;-72
2023/03/17 09:02:15;;;;;;;5.85;3.10;;;;;;;9.92;30.83;94935.00;5039742;28;20094;-73
2023/03/17 09:04:40;;;;;;;6.90;3.28;;;;;;;10.07;31.15;94930.47;5039030;28;20619;-70
2023/03/17 09:07:05;;;;;;;7.55;4.80;;;;;;;9.96;30.69;94930.94;5037137;28;20110;-69
2023/03/17 09:09:33;;;;;;;10.50;5.05;;;;;;;10.14;30.30;94940.34;5041343;28;20048;-70
2023/03/17 09:11:58;;;;;;;4.20;3.22;;;;;;;9.59;30.55;94939.81;5041182;28;20039;-70
2023/03/17 09:14:24;;;;;;;6.10;3.50;;;;;;;9.07;32.06;94926.56;5038996;28;20416;-69
2023/03/17 09:16:49;;;;;;;5.82;4.03;;;;;;;10.27;30.52;94927.13;5037160;28;20033;-70
2023/03/17 09:19:15;;;;;;;6.10;3.30;;;;;;;10.21;30.63;94926.06;5039272;28;20068;-70
2023/03/17 09:21:41;;;;;;;6.47;4.13;;;;;;;10.90;29.60;94919.34;5036089;28;20036;-70
2023/03/17 09:24:07;;;;;;;5.65;3.50;;;;;;;10.46;30.22;94923.00;5033589;28;20041;-70
2023/03/17 09:26:32;;;;;;;5.30;2.97;;;;;;;11.21;29.05;94926.91;5034387;28;20453;-69
2023/03/17 09:28:58;;;;;;;4.78;3.08;;;;;;;10.45;29.69;94936.50;5037795;28;20037;-69
2023/03/17 09:31:23;;;;;;;8.45;3.50;;;;;;;10.82;29.35;94936.31;5039204;28;20036;-69
2023/03/17 09:33:51;;;;;;;8.65;6.45;;;;;;;11.09;28.95;94934.63;5040779;28;20094;-69
2023/03/17 09:36:16;;;;;;;14.38;9.43;;;;;;;11.60;29.09;94929.06;5037713;28;20056;-69
2023/03/17 09:38:42;;;;;;;6.93;5.68;;;;;;;11.63;29.07;94926.81;5039208;28;20036;-69
2023/03/17 09:41:19;;;;;;;5.53;3.22;;;;;;;10.77;29.16;94931.56;5038758;28;20036;-69
2023/03/17 09:44:22;;;;;;;9.50;7.13;;;;;;;10.89;28.65;94918.53;5037068;28;20040;-69
2023/03/17 09:46:56;;;;;;;6.82;4.13;;;;;;;10.19;30.31;94928.13;5039802;28;20041;-69
2023/03/17 09:49:28;;;;;;;4.90;3.58;;;;;;;10.99;29.89;94920.84;5022871;28;20025;-69
2023/03/17 09:51:54;;;;;;;13.45;8.45;;;;;;;11.84;28.23;94918.88;5022958;28;20045;-70
2023/03/17 09:54:28;;;;;;;9.80;6.88;;;;;;;12.05;27.96;94928.53;5020807;28;20067;-69
2023/03/17 09:57:17;;;;;;;5.93;3.63;;;;;;;11.59;29.10;94922.13;5019077;28;20904;-69
2023/03/17 09:59:45;;;;;;;8.02;4.38;;;;;;;12.18;28.24;94910.91;5036049;28;20488;-69
2023/03/17 10:02:22;;;;;;;7.60;4.85;;;;;;;12.67;27.47;94920.31;5040319;28;20054;-69
2023/03/17 10:04:47;;;;;;;5.55;3.60;;;;;;;12.70;26.86;94915.56;5018193;28;20033;-70
2023/03/17 10:07:15;;;;;;;7.68;3.60;;;;;;;12.85;27.21;94913.47;5034148;28;20064;-70
2023/03/17 10:09:44;;;;;;;10.38;6.57;;;;;;;13.25;27.02;94919.75;5019092;28;20029;-70
2023/03/17 10:12:23;;;;;;;14.23;10.32;;;;;;;13.11;26.88;94916.31;5021767;28;20298;-69
2023/03/17 10:14:59;;;;;;;4.90;3.20;;;;;;;13.44;26.73;94910.81;5018893;28;20132;-69
2023/03/17 10:17:44;;;;;;;10.38;6.72;;;;;;;13.55;26.62;94914.69;5035783;28;20083;-71
2023/03/17 10:20:27;;;;;;;5.32;2.80;;;;;;;13.76;26.33;94917.22;5036156;28;20037;-70
2023/03/17 10:22:57;;;;;;;16.60;9.93;;;;;;;13.63;26.08;94926.97;5019999;28;20040;-70
2023/03/17 10:25:33;;;;;;;13.23;9.05;;;;;;;12.40;27.99;94917.69;5035637;28;21520;-70
2023/03/17 10:28:02;;;;;;;7.18;2.80;;;;;;;12.83;26.94;94920.91;5037786;28;20079;-70
2023/03/17 10:30:29;;;;;;;28.92;20.00;;;;;;;13.31;27.57;94918.91;5016328;28;20163;-69
2023/03/17 10:32:56;;;;;;;19.67;14.10;;;;;;;11.71;29.66;94914.31;5035326;28;20638;-70
2023/03/17 10:35:21;;;;;;;11.15;5.82;;;;;;;12.62;28.10;94906.75;5038053;28;20075;-70
2023/03/17 10:37:47;;;;;;;14.70;9.63;;;;;;;13.38;26.81;94902.81;5034553;28;20028;-70
2023/03/17 10:40:30;;;;;;;5.25;2.97;;;;;;;13.30;26.82;94906.59;5035925;28;20041;-70
2023/03/17 10:43:09;;;;;;;9.95;5.95;;;;;;;13.50;26.65;94906.47;5032517;28;20040;-70
2023/03/17 10:45:39;;;;;;;9.13;5.95;;;;;;;13.88;26.36;94902.16;5036744;28;20029;-70
2023/03/17 10:48:08;;;;;;;6.32;4.45;;;;;;;12.64;27.12;94906.53;5036688;28;20564;-70
2023/03/17 10:50:38;;;;;;;11.60;8.00;;;;;;;13.12;27.05;94905.41;5036643;28;20790;-70
2023/03/17 10:53:06;;;;;;;9.52;5.70;;;;;;;13.46;26.48;94910.59;5035463;28;20029;-70
2023/03/17 10:55:32;;;;;;;;;;;;;;;13.52;26.94;94900.91;5038206;28;20110;-70
2023/03/17 10:58:21;;;;;;;5.05;2.65;;;;;;;13.73;26.70;94894.41;5036757;28;19916;-70
2023/03/17 11:01:06;;;;;;;4.65;2.60;;;;;;;13.50;26.17;94898.44;5019958;28;20099;-70
2023/03/17 11:03:36;;;;;;;5.90;2.95;;;;;;;12.66;28.45;94900.00;5033461;28;20043;-70
2023/03/17 11:06:14;;;;;;;5.97;2.97;;;;;;;13.52;26.84;94895.56;5036392;28;20037;-70
2023/03/17 11:08:47;;;;;;;13.98;9.40;;;;;;;13.51;26.64;94910.81;5018270;28;20311;-69
2023/03/17 11:11:29;;;;;;;6.95;3.80;;;;;;;12.53;28.28;94902.66;5035211;28;20049;-69
2023/03/17 11:14:02;;;;;;;13.52;7.30;;;;;;;13.59;27.17;94915.06;5035110;28;20039;-69
2023/03/17 11:16:28;;;;;;;7.00;3.20;;;;;;;13.12;27.68;94905.41;5035449;28;20044;-69
2023/03/17 11:18:55;;;;;;;14.50;10.85;;;;;;;12.64;28.56;94910.03;5019279;28;20110;-69
2023/03/17 11:21:31;;;;;;;14.13;9.57;;;;;;;13.17;27.99;94900.28;5015203;28;20095;-69
2023/03/17 11:24:11;;;;;;;5.10;2.80;;;;;;;13.26;27.84;94900.03;5018284;28;20048;-69
2023/03/17 11:26:49;;;;;;;4.47;2.78;;;;;;;13.20;27.49;94890.16;5017918;28;20036;-69
2023/03/17 11:29:39;;;;;;;3.88;2.75;;;;;;;13.39;27.70;94889.25;5036478;28;20083;-70
2023/03/17 11:32:06;;;;;;;20.02;15.40;;;;;;;14.01;27.10;94892.41;5039066;28;20143;-69
2023/03/17 11:34:35;;;;;;;5.60;3.40;;;;;;;14.03;26.47;94888.47;5039849;28;20040;-69
2023/03/17 11:37:00;;;;;;;16.17;9.77;;;;;;;14.20;26.91;94886.06;5037203;28;20148;-69
2023/03/17 11:39:30;;;;;;;6.90;2.85;;;;;;;11.58;30.13;94894.63;5037445;28;20037;-69